Tiempo atmosférico en la estación meteorológica de Talarn, Lleida (799 m.)



Fecha
DESCASC
Temp. máxima en grados centígrados (hora)
DESCASC
Temp. mínima en grados centígrados (hora)
DESCASC
Temp. media en grados centígrados
DESCASC
Racha de viento máxima en m/sg (hora)
DESCASC
Velocidad máxima media en intervalos de 10 minutos(hora)
DESCASC
Precipitaciones diarias en mm
DESCASC
Precipitaciones de 00:00 a 06:00 en mm
DESCASC
Precipitaciones de 06:00 a 12:00 en mm
DESCASC
Precipitaciones de 12:00 a 18:00 en mm
DESCASC
Precipitaciones de 18:00 a 24:00 en mm
DESCASC
06-07-2020 30.8 (16:50) 16.7 (06:50) 23.8 11.67 (14:50) 6.67 (16:30) 0 0 0 0 0
05-07-2020 30.2 (17:20) 14.5 (05:50) 22.4 9.17 (17:00) 5.83 (16:20) 0 0 0 0 0
04-07-2020 27 (17:20) 12.4 (06:20) 19.7 8.89 (17:30) 5.83 (16:30) 0 0 0 0 0
03-07-2020 25.4 (18:40) 14.4 (06:50) 19.9 10 (15:00) 6.67 (15:00) 2.6 2.6 0 0 0
02-07-2020 27.8 (16:30) 14.3 (00:00) 21 25.28 (19:50) 7.5 (19:50) 17.8 4.2 1.2 0.2 12.2
01-07-2020 31.6 (18:30) 17.9 (00:00) 24.8 11.67 (21:40) 7.5 (21:30) 0 0 0 0 0
30-06-2020 29.4 (15:40) 18.9 (00:00) 24.1 6.94 (15:00) 4.17 (15:40) 0 0 0 0 0
29-06-2020 29.9 (17:30) 17.8 (00:00) 23.8 9.17 (16:20) 6.11 (18:10) 0 0 0 0 0
28-06-2020 29.8 (18:00) 16.9 (00:00) 23.3 6.67 (14:40) 4.72 (14:40) 0 0 0 0 0
27-06-2020 28.8 (16:00) 15.3 (00:00) 22 8.06 (15:20) 6.11 (22:10) 0 0 0 0 0
26-06-2020 29.1 (16:10) 14.6 (00:00) 21.9 6.94 (03:10) 4.44 (17:30) 0.4 0.4 0 0 0
25-06-2020 30.3 (17:10) 13.3 (00:00) 21.8 17.5 (23:59) 8.89 (23:59) 15.2 0 0 0 15.2
24-06-2020 30.8 (16:20) 15 (00:00) 22.9 15.28 (19:20) 8.89 (19:10) 3.4 0 0 0 3.4
23-06-2020 30 (17:10) 15.4 (00:00) 22.7 9.17 (14:50) 5.28 (18:00) 0 0 0 0 0
22-06-2020 29 (16:30) 15.1 (00:00) 22.1 9.72 (00:10) 6.11 (14:20) 0 0 0 0 0
21-06-2020 29.3 (18:10) 14.1 (00:00) 21.7 10.56 (23:59) 6.67 (16:40) 0 0 0 0 0
20-06-2020 26.9 (16:00) 13.7 (00:00) 20.3 11.11 (18:20) 7.22 (16:50) 0 0 0 0 0
19-06-2020 23.9 (17:00) 13.1 (00:00) 18.5 8.89 (15:40) 5.56 (16:20) 1.6 0 1.6 0 0
18-06-2020 22.5 (18:00) 10.9 (00:00) 16.7 9.44 (15:50) 5.83 (14:40) 1.6 0.6 1 0 0
17-06-2020 21.8 (16:30) 8.8 (00:00) 15.3 10.83 (15:30) 6.67 (12:00) 0 0 0 0 0
16-06-2020 19 (16:30) 11.8 (00:00) 15.4 7.5 (16:30) 5.56 (19:20) 9.2 0.2 7.2 1.6 0.2
15-06-2020 24.5 (16:00) 13.8 (00:00) 19.2 11.94 (15:20) 6.94 (16:20) 0 0 0 0 0
14-06-2020 23.3 (15:50) 9.6 (00:00) 16.4 9.17 (14:30) 5.28 (14:20) 0 0 0 0 0
13-06-2020 21.6 (16:00) 8.5 (00:00) 15.1 12.78 (14:00) 7.5 (17:40) 0 0 0 0 0
12-06-2020 19.8 (17:50) 10.9 (00:00) 15.3 11.67 (12:00) 6.67 (11:20) 9 9 0 0 0
11-06-2020 18.3 (14:50) 10.2 (00:00) 14.2 7.5 (00:10) 4.17 (00:10) 16.8 0.2 0 2 14.6
10-06-2020 -- (--) -- (--) -- -- (--) -- (--) -- -- -- 0 0
09-06-2020 -- (--) -- (--) -- -- (--) -- (--) -- -- -- 0 0.4
08-06-2020 -- (--) -- (--) -- -- (--) -- (--) -- -- -- 0.6 --
07-06-2020 -- (--) -- (--) -- -- (--) -- (--) -- -- -- 7.4 --

Gráficas

Temp. máximas Temp. mínimas Temp. medias Precipitaciones Rachas de viento máximas Velocidades máximas media en intervalos de 10 minutos

Datos horarios

Fecha y hora oficial Temperatura (ºC) Velocidad del viento (km/h) Dirección del viento Racha (km/h) Dirección de racha Precipitación (mm) Presión (hPa) Tendencia (hPa) Humedad (%)
2020-07-06 23:00:00 23.6 9 Norte 18 Norte 0 924.7 0.7 46
2020-07-06 22:00:00 24.2 10 Norte 18 Nordeste 0 924.4 0.5 44
2020-07-06 21:00:00 25.9 6 Oeste 23 Oeste 0 924.1 0 47
2020-07-06 20:00:00 28.8 15 Sudoeste 26 Sudoeste 0 924 -0.5 39
2020-07-06 19:00:00 29.5 16 Sudoeste 34 Sudoeste 0 923.9 -0.8 38
2020-07-06 18:00:00 30.4 19 Sudoeste 33 Sudoeste 0 924.1 -1 37
2020-07-06 17:00:00 30.5 19 Oeste 39 Sudoeste 0 924.5 -1 36
2020-07-06 16:00:00 30.5 17 Sudoeste 37 Sudoeste 0 924.7 -1.1 39
2020-07-06 15:00:00 30.2 19 Sudoeste 42 Sudoeste 0 925.1 -1 38
2020-07-06 14:00:00 29.7 13 Oeste 26 Sudoeste 0 925.5 -1 40
2020-07-06 13:00:00 27.6 9 Sur 22 Sur 0 925.8 -0.9 39
2020-07-06 12:00:00 26 8 Sur 15 Sur 0 926.1 -- 44
2020-07-06 11:00:00 24.3 6 Sur 11 Sur 0 926.5 -- 50
2020-07-06 10:00:00 22.7 6 Sur 9 Sur 0 926.7 -- 57
2020-07-06 09:00:00 21.2 4 Sur 6 Sur 0 926.9 -- 65
2020-07-06 08:00:00 21.3 0 Calma 5 Sudoeste 0 926.8 -- 55
2020-07-06 07:00:00 18 2 Sur 7 Norte 0 926.6 -- 62
2020-07-06 06:00:00 17.2 3 Este 4 Nordeste 0 926.5 -- 69
2020-07-06 05:00:00 18.3 2 Norte 5 Noroeste 0 926.5 -- 63
2020-07-06 04:00:00 19.1 3 Noroeste 6 Norte 0 926.7 -- 60
2020-07-06 03:00:00 20.2 0 Calma 9 Noroeste 0 927.1 -- 56
2020-07-06 02:00:00 21.4 3 Oeste 6 Sudoeste 0 927.4 -- 54
2020-07-06 01:00:00 22.5 4 Sudeste 8 Norte 0 927.5 -- 46
2020-07-06 00:00:00 22.5 8 Norte 16 Nordeste 0 927.4 -- 51
2020-07-05 23:00:00 22.7 9 Norte 16 Noroeste 0 927.4 -- 51
2020-07-05 22:00:00 23.9 11 Noroeste 14 Noroeste 0 926.8 -- 48
2020-07-05 21:00:00 25.3 10 Oeste 15 Sudoeste 0 926.5 -- 42
2020-07-05 20:00:00 28.6 9 Sudoeste 25 Sudoeste 0 926.5 -- 33
2020-07-05 19:00:00 29.3 16 Sudoeste 26 Sudoeste 0 926.6 -- 33
2020-07-05 18:00:00 29.3 18 Sudoeste 28 Oeste 0 926.9 -- 35
2020-07-05 17:00:00 29.5 20 Sudoeste 33 Sudoeste 0 927.3 -- 36
2020-07-05 16:00:00 29.4 19 Sudoeste 32 Sudoeste 0 927.7 -- 34
2020-07-05 15:00:00 29.2 18 Sur 28 Sur 0 928.3 -- 35
2020-07-05 14:00:00 28 14 Sur 22 Sur 0 928.9 -- 35
2020-07-05 13:00:00 26.6 10 Sur 17 Sur 0 929.3 -- 40
2020-07-05 12:00:00 24.6 9 Sur 20 Sur 0 929.6 -- 48
2020-07-05 11:00:00 22.5 5 Sur 12 Sur 0 929.8 -- 58
2020-07-05 10:00:00 20.6 5 Sur 10 Sudeste 0 930 -- 65
2020-07-05 09:00:00 19 4 Sur 6 Sur 0 929.7 -- 71
2020-07-05 08:00:00 18 2 Sur 5 Sur 0 929.6 -- 64
2020-07-05 07:00:00 16.2 0 Calma 6 Sur 0 929.5 -- 74
2020-07-05 06:00:00 15.4 5 Noroeste 8 Noroeste 0 929.4 -- 75
2020-07-05 05:00:00 15.2 4 Norte 8 Noroeste 0 929.3 -- 75
2020-07-05 04:00:00 15.5 8 Noroeste 10 Norte 0 929.4 -- 75
2020-07-05 03:00:00 17 5 Noroeste 8 Noroeste 0 929.9 -- 67
2020-07-05 02:00:00 17.5 7 Norte 9 Noroeste 0 930.3 -- 67
2020-07-05 01:00:00 18 2 Sudoeste 11 Noroeste 0 930.4 -- 62
2020-07-05 00:00:00 18.3 11 Norte 13 Norte 0 930.3 -- 64
2020-07-04 23:00:00 19.5 2 Oeste 13 Sudoeste 0 930.1 -- 55
2020-07-04 22:00:00 20.4 4 Norte 19 Oeste 0 929.4 -- 56
2020-07-04 21:00:00 23.3 14 Oeste 18 Oeste 0 928.9 -- 44
2020-07-04 20:00:00 25.6 12 Sudoeste 22 Sudoeste 0 928.5 -- 36
2020-07-04 19:00:00 26.4 13 Sudoeste 26 Sur 0 928.2 -- 37
2020-07-04 18:00:00 26.4 18 Sur 32 Sudoeste 0 928.3 -- 36
2020-07-04 17:00:00 26.5 19 Sur 30 Sur 0 928.5 -- 35
2020-07-04 16:00:00 26.4 17 Sur 27 Sur 0 928.8 -- 38
2020-07-04 15:00:00 25.9 14 Sur 26 Sur 0 929.2 -- 44
2020-07-04 14:00:00 24.7 12 Sur 21 Sur 0 929.5 -- 46
2020-07-04 13:00:00 23.1 11 Sur 18 Sur 0 929.8 -- 50
2020-07-04 12:00:00 21.2 7 Sur 16 Sur 0 929.9 -- 50
2020-07-04 11:00:00 19.3 6 Sur 14 Sur 0 929.7 -- 54
2020-07-04 10:00:00 17.9 6 Sur 11 Sudoeste 0 929.7 -- 61
2020-07-04 09:00:00 16.5 4 Sur 8 Sudeste 0 929.3 -- 66
2020-07-04 08:00:00 15.5 4 Sudeste 7 Sur 0 929 -- 65
2020-07-04 07:00:00 13 2 Norte 6 Sur 0 928.8 -- 78
2020-07-04 06:00:00 12.6 3 Este 5 Oeste 0 928.4 -- 78
2020-07-04 05:00:00 14 2 Sudoeste 10 Norte 0 928.4 -- 70
2020-07-04 04:00:00 13.6 9 Norte 15 Nordeste 0 928.5 -- 73
2020-07-04 03:00:00 15.2 9 Norte 13 Norte 0 928.6 -- 68
2020-07-04 02:00:00 17.4 4 Sudeste 13 Norte 0 928.5 -- 59
2020-07-04 01:00:00 18.1 6 Nordeste 13 Norte 0 928.2 -- 56
2020-07-04 00:00:00 18.9 6 Nordeste 21 Norte 0 928.3 -- 54
2020-07-03 23:00:00 17.4 15 Noroeste 18 Noroeste 0 927.8 -- 56
2020-07-03 22:00:00 19.5 10 Oeste 17 Sudoeste 0 927.1 -- 50
2020-07-03 21:00:00 21 10 Sudoeste 20 Sudoeste 0 926.6 -- 47
2020-07-03 20:00:00 23.6 11 Sudoeste 28 Sudoeste 0 926.2 -- 41
2020-07-03 19:00:00 25 11 Sudoeste 27 Sudoeste 0 925.9 -- 38
2020-07-03 18:00:00 24.7 15 Sudoeste 31 Sudoeste 0 926 -- 38
2020-07-03 17:00:00 24.5 17 Sudoeste 35 Sudoeste 0 926.2 -- 41
2020-07-03 16:00:00 24.5 17 Oeste 35 Sudoeste 0 926.4 -- 43
2020-07-03 15:00:00 23.4 24 Sudoeste 36 Sudoeste 0 926.5 -- 50
2020-07-03 14:00:00 23.3 19 Sudoeste 32 Sudoeste 0 926.8 -- 54
2020-07-03 13:00:00 23.2 18 Sur 28 Sudoeste 0 926.9 -- 58
2020-07-03 12:00:00 21.1 12 Sur 20 Sur 0 927 -- 69
2020-07-03 11:00:00 19.8 9 Sur 15 Sur 0 926.9 -- 75
2020-07-03 10:00:00 18.2 5 Sur 9 Sur 0 926.8 -- 84
2020-07-03 09:00:00 16.1 6 Sur 10 Sur 0 926.7 -- 95
2020-07-03 08:00:00 15.7 0 Calma 8 Sur 0 926.4 -- 93
2020-07-03 07:00:00 14.5 8 Noroeste 11 Noroeste 0 926 -- 96
2020-07-03 06:00:00 15.2 5 Sur 12 Nordeste 0.2 926 -- 94
2020-07-03 05:00:00 15.5 4 Sudoeste 18 Norte 2.2 926.2 -- 90
2020-07-03 04:00:00 16.2 4 Norte 15 Norte 0.2 925.7 -- 78
2020-07-03 03:00:00 17 9 Norte 14 Norte 0 926.2 -- 78
2020-07-03 02:00:00 17 6 Norte 18 Norte 0 925.7 -- 82
2020-07-03 01:00:00 16.6 9 Nordeste 13 Nordeste 0 925.8 -- 86
2020-07-03 00:00:00 15.8 7 Norte 19 Este 0.4 925.3 -- 94
2020-07-02 23:00:00 16.7 5 Norte 16 Sur 0 924.6 -- 85
2020-07-02 22:00:00 17.9 15 Norte 35 Noroeste 0 923.9 -- 75
2020-07-02 21:00:00 16.6 15 Norte 25 Nordeste 0 923.3 -- 81
2020-07-02 20:00:00 14.4 18 Nordeste 91 Noroeste 11.8 923.4 -- 93
2020-07-02 19:00:00 24.2 8 Nordeste 28 Norte 0 922.8 -- 48
2020-07-02 18:00:00 23.7 11 Noroeste 27 Noroeste 0.2 922.9 -- 49
2020-07-02 17:00:00 26.4 4 Sudoeste 30 Sur 0 922.8 -- 47
2020-07-02 16:00:00 26.4 14 Sur 26 Sur 0 923.2 -- 58
2020-07-02 15:00:00 25 9 Sudoeste 20 Sur 0 923.7 -- 55
2020-07-02 14:00:00 25.3 10 Sur 19 Sur 0 924.4 -- 60
2020-07-02 13:00:00 23.5 7 Sudeste 14 Sur 0 924.6 -- 63
2020-07-02 12:00:00 22.3 8 Sudeste 15 Sur 0 924.8 -- 73
2020-07-02 11:00:00 20.7 5 Sur 12 Sur 0 924.7 -- 81
2020-07-02 10:00:00 19.3 2 Oeste 12 Sur 0 924.8 -- 90
2020-07-02 09:00:00 18.1 3 Sudoeste 10 Sur 0 924.4 -- 96
2020-07-02 08:00:00 17 3 Oeste 18 Nordeste 0 924.1 -- 98
2020-07-02 07:00:00 16.4 14 Norte 19 Norte 1.2 924.4 -- 97
2020-07-02 06:00:00 16.8 8 Este 17 Nordeste 1.4 924.1 -- 97
2020-07-02 05:00:00 17.5 7 Noroeste 27 Sudoeste 2 923.9 -- 93
2020-07-02 04:00:00 18.6 5 Norte 17 Sur 0.4 923.5 -- 87
2020-07-02 03:00:00 20.1 4 Este 19 Sudoeste 0.4 923.4 -- 75
2020-07-02 02:00:00 21.9 8 Oeste 19 Noroeste 0 923.7 -- 62
2020-07-02 01:00:00 23.3 6 Sur 17 Sudeste 0 922.9 -- 47
2020-07-02 00:00:00 22.7 14 Norte 19 Noroeste 0 922.2 -- 44
2020-07-01 23:00:00 24.8 7 Sudeste 21 Norte 0 922.1 -- 38
2020-07-01 22:00:00 25.5 16 Norte 42 Noroeste 0 921.5 -- 36
2020-07-01 21:00:00 27.5 12 Oeste 22 Oeste 0 921.1 -- 34
2020-07-01 20:00:00 29.3 15 Oeste 28 Sudoeste 0 920.7 -- 29
2020-07-01 19:00:00 30.9 19 Oeste 36 Sudoeste 0 920.4 -- 19
2020-07-01 18:00:00 30.9 20 Sur 39 Sur 0 920.4 -- 26
2020-07-01 17:00:00 30.8 15 Sur 27 Sur 0 920.8 -- 29
2020-07-01 16:00:00 30.8 14 Sur 24 Sur 0 921.1 -- 30
2020-07-01 15:00:00 30 8 Sudoeste 18 Sur 0 921.4 -- 31
2020-07-01 14:00:00 29.1 11 Sur 21 Sur 0 921.7 -- 31
2020-07-01 13:00:00 28.2 9 Sudeste 19 Sudeste 0 921.9 -- 36
2020-07-01 12:00:00 27.1 11 Sur 21 Sur 0 922 -- 45
2020-07-01 11:00:00 26.2 4 Sudoeste 13 Sur 0 922 -- 53
2020-07-01 10:00:00 23.6 4 Sudoeste 8 Sur 0 921.9 -- 65
2020-07-01 09:00:00 21.6 5 Sudoeste 17 Nordeste 0 921.9 -- 70
2020-07-01 08:00:00 19.7 9 Norte 12 Norte 0 921.8 -- 74
2020-07-01 07:00:00 18.2 2 Norte 7 Norte 0 921.6 -- 80
2020-07-01 06:00:00 18.1 3 Noroeste 9 Sur 0 921.6 -- 80
2020-07-01 05:00:00 20.2 10 Norte 24 Norte 0 921.8 -- 71
2020-07-01 04:00:00 19.3 5 Noroeste 14 Sudoeste 0 922.3 -- 74
2020-07-01 03:00:00 19.6 4 Nordeste 15 Norte 0 922.2 -- 75
2020-07-01 02:00:00 20.9 8 Este 25 Noroeste 0 922.3 -- 71
2020-07-01 01:00:00 21.4 16 Norte 21 Noroeste 0 922.3 -- 66
2020-07-01 00:00:00 21.5 3 Noroeste 16 Sudoeste 0 923.9 -- 67
2020-06-30 23:00:00 22.3 10 Sudoeste 15 Sur 0 923.1 -- 63
2020-06-30 22:00:00 23.8 10 Sudeste 20 Sudeste 0 922.4 -- 59
2020-06-30 21:00:00 25.2 12 Sudeste 21 Sur 0 922.2 -- 58
2020-06-30 20:00:00 27.9 5 Sur 17 Sur 0 921.9 -- 47
2020-06-30 19:00:00 28.4 8 Sudeste 19 Sudeste 0 921.9 -- 45
2020-06-30 18:00:00 28.6 12 Sur 23 Sur 0 922.4 -- 48
2020-06-30 17:00:00 27.8 14 Sur 23 Sur 0 922.8 -- 52
2020-06-30 16:00:00 28 9 Sur 24 Sur 0 923.1 -- 54
2020-06-30 15:00:00 28.7 14 Sur 25 Sur 0 923.4 -- 48
2020-06-30 14:00:00 27.4 9 Sudeste 22 Sur 0 923.7 -- 56
2020-06-30 13:00:00 26.4 7 Sudeste 19 Sur 0 924.3 -- 61
2020-06-30 12:00:00 25.7 10 Sur 19 Sur 0 924.4 -- 64
2020-06-30 11:00:00 22.8 7 Sur 13 Sur 0 924.5 -- 75
2020-06-30 10:00:00 22 6 Sur 12 Sur 0 924.7 -- 80
2020-06-30 09:00:00 21.7 5 Sur 8 Sudeste 0 924.6 -- 83
2020-06-30 08:00:00 20 3 Sur 5 Nordeste 0 924.6 -- 92
2020-06-30 07:00:00 19.4 2 Sudeste 6 Sur 0 924.6 -- 93
2020-06-30 06:00:00 19.5 5 Sur 8 Sur 0 924.4 -- 92
2020-06-30 05:00:00 19.4 5 Norte 7 Norte 0 924.4 -- 94
2020-06-30 04:00:00 19.6 3 Noroeste 6 Norte 0 924.8 -- 92
2020-06-30 03:00:00 19.6 4 Sudoeste 8 Sudoeste 0 925 -- 89
2020-06-30 02:00:00 20.5 5 Sudoeste 11 Sudoeste 0 925.4 -- 83
2020-06-30 01:00:00 21 8 Oeste 11 Sudoeste 0 925.6 -- 81
2020-06-30 00:00:00 21.3 6 Oeste 9 Oeste 0 925.3 -- 79
2020-06-29 23:00:00 22.2 3 Sur 19 Sudeste 0 925.2 -- 74
2020-06-29 22:00:00 23.4 13 Sudeste 21 Sudeste 0 924.1 -- 68
2020-06-29 21:00:00 25.9 13 Sudoeste 20 Sudoeste 0 923.9 -- 53
2020-06-29 20:00:00 26.4 10 Sudoeste 26 Sudoeste 0 923.9 -- 51
2020-06-29 19:00:00 28.4 18 Sudoeste 32 Sudoeste 0 923.8 -- 46
2020-06-29 18:00:00 29.3 19 Sudoeste 33 Sudoeste 0 924.1 -- 44
2020-06-29 17:00:00 29.8 15 Sudoeste 33 Sudoeste 0 924.3 -- 44
2020-06-29 16:00:00 28.4 20 Sur 29 Sur 0 924.7 -- 47
2020-06-29 15:00:00 27.9 15 Sur 29 Sudoeste 0 925 -- 52
2020-06-29 14:00:00 27 14 Sur 27 Sur 0 925.6 -- 52
2020-06-29 13:00:00 26.8 15 Sur 26 Sur 0 926 -- 51
2020-06-29 12:00:00 26.4 9 Sur 17 Sur 0 926.3 -- 54
2020-06-29 11:00:00 24.8 8 Sur 14 Sur 0 926.2 -- 56
2020-06-29 10:00:00 23.5 5 Sur 10 Sur 0 926.3 -- 62
2020-06-29 09:00:00 22.5 4 Este 7 Este 0 926.5 -- 68
2020-06-29 08:00:00 21 3 Norte 5 Nordeste 0 926.3 -- 75
2020-06-29 07:00:00 19 4 Sudoeste 6 Norte 0 926.2 -- 80
2020-06-29 06:00:00 19.2 3 Sudoeste 9 Norte 0 925.8 -- 78
2020-06-29 05:00:00 18.8 5 Noroeste 8 Noroeste 0 925.7 -- 79
2020-06-29 04:00:00 19.8 3 Sudeste 5 Noroeste 0 925.9 -- 74
2020-06-29 03:00:00 20 0 Calma 5 Norte 0 926 -- 74
2020-06-29 02:00:00 20 3 Noroeste 10 Norte 0 926.2 -- 74
2020-06-29 01:00:00 20.5 9 Norte 13 Norte 0 926.6 -- 73
2020-06-29 00:00:00 21.2 4 Oeste 10 Norte 0 926.4 -- 68
2020-06-28 23:00:00 23 4 Sudeste 14 Sudeste 0 926.1 -- 62
2020-06-28 22:00:00 23.5 9 Oeste 15 Oeste 0 925.4 -- 48
2020-06-28 21:00:00 25.9 12 Oeste 21 Sudoeste 0 925.2 -- 44
2020-06-28 20:00:00 28.3 10 Sudoeste 19 Sudoeste 0 925.1 -- 36
2020-06-28 19:00:00 29.1 13 Oeste 23 Sudoeste 0 925.1 -- 33
2020-06-28 18:00:00 29.4 15 Oeste 23 Sudoeste 0 925.2 -- 35
2020-06-28 17:00:00 29.1 10 Sur 17 Sur 0 925.6 -- 40
2020-06-28 16:00:00 27.2 9 Sudoeste 23 Sur 0 926.1 -1 44
2020-06-28 15:00:00 28.1 6 Sudoeste 24 Sur 0 926.3 -- 43
2020-06-28 14:00:00 27.7 14 Sur 24 Sudoeste 0 926.7 -- 45
2020-06-28 13:00:00 27.4 12 Sudeste 21 Sur 0 927.1 -- 45
2020-06-28 12:00:00 25.9 11 Sur 19 Sur 0 927.4 -- 52
2020-06-28 11:00:00 24.6 6 Sur 14 Sur 0 927.4 -- 60
2020-06-28 10:00:00 22.2 5 Sur 8 Sur 0 927.3 -- 66
2020-06-28 09:00:00 20.8 2 Nordeste 9 Norte 0 927.2 -- 73
2020-06-28 08:00:00 19.6 0 Calma 5 Sudoeste 0 926.9 -- 70
2020-06-28 07:00:00 18.3 2 Sudoeste 9 Noroeste 0 926.6 -- 80
2020-06-28 06:00:00 18.3 5 Sur 8 Sur 0 926.6 -- 75
2020-06-28 05:00:00 18.9 5 Noroeste 11 Norte 0 926.6 -- 78
2020-06-28 04:00:00 18.6 9 Norte 12 Norte 0 926.6 -- 73
2020-06-28 03:00:00 19.1 3 Noroeste 14 Norte 0 926.3 -- 68
2020-06-28 02:00:00 18.7 9 Noroeste 12 Noroeste 0 926 -- 71
2020-06-28 01:00:00 20 7 Oeste 10 Sur 0 926 -- 63
2020-06-28 00:00:00 20 6 Norte 9 Norte 0 925.7 -- 51
2020-06-27 23:00:00 22 6 Este 27 Oeste 0 925.6 -- 43
2020-06-27 22:00:00 24.1 19 Oeste 28 Oeste 0 924.9 -- 35
2020-06-27 21:00:00 24.7 16 Oeste 21 Oeste 0 924.4 -- 36
2020-06-27 20:00:00 27.2 11 Sudoeste 21 Sudoeste 0 924.1 -- 35
2020-06-27 19:00:00 28.1 11 Sudoeste 27 Sudoeste 0 924 -- 35
2020-06-27 18:00:00 28.5 10 Sudoeste 23 Sudoeste 0 924 -- 31
2020-06-27 17:00:00 26.6 9 Sur 27 Sudoeste 0 924.1 -- 37
2020-06-27 16:00:00 28.7 15 Sudoeste 29 Sur 0 924.2 -- 33
2020-06-27 15:00:00 27.6 18 Sur 28 Sudoeste 0 924.5 -- 35
2020-06-27 14:00:00 26.6 7 Sur 23 Sur 0 924.7 -- 33
2020-06-27 13:00:00 26.2 10 Sur 21 Sur 0 924.9 -- 35
2020-06-27 12:00:00 25.1 7 Sudeste 16 Sudeste 0 925.1 -- 42
2020-06-27 11:00:00 23 5 Sur 12 Sur 0 924.9 -- 51
2020-06-27 10:00:00 21.1 5 Sur 9 Sur 0 924.8 -- 62
2020-06-27 09:00:00 19.2 4 Sur 6 Sudeste 0 924.9 -- 64
2020-06-27 08:00:00 19 3 Este 5 Este 0 924.7 -- 61
2020-06-27 07:00:00 15.9 2 Noroeste 5 Sudoeste 0 924.4 -- 69
2020-06-27 06:00:00 15.6 3 Noroeste 8 Noroeste 0 924.1 -- 65
2020-06-27 05:00:00 16.5 0 Calma 5 Norte 0 924 -- 64
2020-06-27 04:00:00 17.5 3 Oeste 15 Norte 0 924.2 -- 57
2020-06-27 03:00:00 16.9 9 Noroeste 18 Norte 0 924.1 -- 61
2020-06-27 02:00:00 17.1 10 Norte 16 Norte 0 923.9 -- 62
2020-06-27 01:00:00 18.7 12 Norte 16 Norte 0 923.7 -- 57
2020-06-27 00:00:00 20.5 4 Sur 11 Este 0 924.1 -- 51
2020-06-26 23:00:00 20.7 5 Nordeste 13 Norte 0 924.3 -- 49
2020-06-26 22:00:00 21 11 Norte 18 Noroeste 0 923.3 -- 48
2020-06-26 21:00:00 23.2 12 Sudoeste 24 Sudoeste 0 923.9 -- 41
2020-06-26 20:00:00 24.1 16 Sudoeste 24 Sur 0 923.4 -- 37
2020-06-26 19:00:00 25.6 12 Sur 21 Sudeste 0 922.5 -- 44
2020-06-26 18:00:00 26.6 10 Sudoeste 21 Sur 0 922.8 -- 39
2020-06-26 17:00:00 28.1 13 Sur 24 Sur 0 923 -- 32
2020-06-26 16:00:00 28.3 8 Sudoeste 23 Sur 0 923.5 -- 36
2020-06-26 15:00:00 27.3 8 Sur 21 Sudeste 0 924 -- 32
2020-06-26 14:00:00 26.6 10 Sudeste 18 Sur 0 924.5 -- 37
2020-06-26 13:00:00 26 9 Sudeste 16 Sudeste 0 924.8 -- 43
2020-06-26 12:00:00 24.2 5 Sur 12 Sudoeste 0 925 -- 57
2020-06-26 11:00:00 21.7 6 Sur 10 Sur 0 925.2 -- 73
2020-06-26 10:00:00 19.6 5 Sur 9 Sur 0 925.6 -- 77
2020-06-26 09:00:00 18.7 2 Nordeste 8 Nordeste 0 925.6 -- 75
2020-06-26 08:00:00 17.2 3 Sudeste 15 Norte 0 925.4 -- 83
2020-06-26 07:00:00 15.8 8 Norte 19 Este 0 925.5 -- 83
2020-06-26 06:00:00 14.9 10 Norte 15 Noroeste 0 926.2 -- 93
2020-06-26 05:00:00 15.1 5 Oeste 17 Norte 0.4 925.9 -- 92
2020-06-26 04:00:00 15.9 13 Norte 25 Oeste 0 926.3 -- 82
2020-06-26 03:00:00 16.8 15 Noroeste 23 Norte 0 926.8 -- 75
2020-06-26 02:00:00 16 5 Sur 13 Norte 0 926.4 -- 81
2020-06-26 01:00:00 15.9 2 Nordeste 24 Sudoeste 0 927 -- 80
2020-06-26 00:00:00 17.8 32 Nordeste 63 Nordeste 1 926.3 -- 67
2020-06-25 23:00:00 16 14 Noroeste 30 Nordeste 13.8 929.1 -- 86
2020-06-25 22:00:00 21.8 6 Sur 36 Nordeste 0.4 927.5 -- 57
2020-06-25 21:00:00 22.3 18 Nordeste 48 Este 0 925.5 -- 45
2020-06-25 20:00:00 24.7 18 Sudeste 35 Sudeste 0 925.6 -- 42
2020-06-25 19:00:00 27.8 10 Este 22 Nordeste 0 924 -- 33
2020-06-25 18:00:00 29.7 9 Sur 22 Sur 0 923.9 -- 28
2020-06-25 17:00:00 29.8 10 Sudeste 22 Sudeste 0 923.8 -- 36
2020-06-25 16:00:00 29.3 10 Sur 24 Sur 0 924.4 -- 35
2020-06-25 15:00:00 28.2 10 Sur 18 Sur 0 925.1 -- 44
2020-06-25 14:00:00 26.7 8 Sudeste 15 Sur 0 925.6 -- 51
2020-06-25 13:00:00 24.8 8 Sur 13 Sur 0 926 -- 59
2020-06-25 12:00:00 23.2 7 Sur 12 Sur 0 926.5 -- 65
2020-06-25 11:00:00 20.9 7 Sur 13 Sur 0 926.5 -- 75
2020-06-25 10:00:00 19.1 6 Sur 12 Sur 0 926.6 -- 79
2020-06-25 09:00:00 17.6 6 Sur 10 Sur 0 926.6 -- 83
2020-06-25 08:00:00 16.3 4 Sur 6 Sur 0 926.3 -- 88
2020-06-25 07:00:00 14.3 3 Norte 5 Oeste 0 926.4 -- 91
2020-06-25 06:00:00 14.3 3 Oeste 5 Norte 0 926.5 -- 93
2020-06-25 05:00:00 13.8 4 Noroeste 6 Noroeste 0 926.6 -- 94
2020-06-25 04:00:00 14.8 4 Sudoeste 9 Sur 0 926.9 -- 93
2020-06-25 03:00:00 15 3 Noroeste 8 Sur 0 926.9 -- 92
2020-06-25 02:00:00 15.8 3 Nordeste 8 Norte 0 926.9 -- 87
2020-06-25 01:00:00 15.5 6 Norte 9 Norte 0 927 -- 93
2020-06-25 00:00:00 15.6 6 Noroeste 14 Sur 0 926.8 -- 90
2020-06-24 23:00:00 15.9 12 Norte 27 Sudoeste 0 926.9 -- 88
2020-06-24 22:00:00 16.4 18 Sudoeste 44 Nordeste 1 927.7 -- 84
2020-06-24 21:00:00 16.2 15 Norte 23 Norte 0.6 929.4 -- 84
2020-06-24 20:00:00 15.5 17 Sudoeste 55 Nordeste 1.8 930.2 -- 90
2020-06-24 19:00:00 22.4 19 Norte 39 Norte 0 926.5 -- 45
2020-06-24 18:00:00 24.8 12 Nordeste 28 Sur 0 926.5 -- 51
2020-06-24 17:00:00 27.7 19 Sur 30 Sur 0 925.7 -- 40
2020-06-24 16:00:00 30.4 19 Sur 33 Sur 0 925 -- 37
2020-06-24 15:00:00 30.2 19 Sur 29 Sur 0 925.1 -- 38
2020-06-24 14:00:00 29.2 12 Sur 24 Sur 0 925.4 -- 39
2020-06-24 13:00:00 27.5 8 Sur 17 Sur 0 925.6 -- 47
2020-06-24 12:00:00 26 9 Sur 15 Sur 0 925.7 -- 52
2020-06-24 11:00:00 24.3 7 Sur 12 Sur 0 926.1 -- 59
2020-06-24 10:00:00 22.3 5 Sur 9 Sur 0 926.4 -- 65
2020-06-24 09:00:00 20.8 5 Sur 7 Sur 0 926.5 -- 70
2020-06-24 08:00:00 19.8 2 Sudoeste 5 Sur 0 926.4 -- 69
2020-06-24 07:00:00 17.7 0 Calma 4 Norte 0 926.2 -- 74
2020-06-24 06:00:00 17.4 2 Sudoeste 10 Norte 0 926.2 -- 76
2020-06-24 05:00:00 17.2 2 Nordeste 6 Sudoeste 0 926.3 -- 76
2020-06-24 04:00:00 19.1 3 Sur 9 Noroeste 0 926.6 -- 69
2020-06-24 03:00:00 18.6 9 Noroeste 13 Norte 0 926.7 -- 70
2020-06-24 02:00:00 19.3 8 Noroeste 12 Norte 0 926.9 -- 68
2020-06-24 01:00:00 20.3 0 Calma 13 Norte 0 927.1 -- 63
2020-06-24 00:00:00 20.2 5 Norte 13 Sudoeste 0 926.7 -- 63
2020-06-23 23:00:00 21.6 6 Sudoeste 11 Sudeste 0 926.7 -- 58
2020-06-23 22:00:00 22.9 9 Sudeste 21 Sudeste 0 926.2 -- 55
2020-06-23 21:00:00 24.2 6 Nordeste 15 Sur 0 925.5 -- 48
2020-06-23 20:00:00 27.5 9 Sur 22 Sur 0 924.9 -- 36
2020-06-23 19:00:00 28.7 14 Sur 25 Sur 0 924.7 -- 32
2020-06-23 18:00:00 29.1 19 Sur 29 Sur 0 925 -- 34
2020-06-23 17:00:00 29.9 15 Sudoeste 27 Sur 0 925.4 -- 31
2020-06-23 16:00:00 29.2 12 Sur 29 Sur 0 925.7 -- 33
2020-06-23 15:00:00 28.9 18 Sur 33 Sudoeste 0 926.1 -- 35
2020-06-23 14:00:00 27.9 17 Sur 32 Sur 0 926.7 -- 41
2020-06-23 13:00:00 26.2 14 Sur 25 Sur 0 927.2 -- 46
2020-06-23 12:00:00 24.6 10 Sur 19 Sur 0 927.6 -- 53
2020-06-23 11:00:00 23.2 7 Sur 13 Sur 0 927.7 -- 58
2020-06-23 10:00:00 21.1 6 Sur 11 Sur 0 928.1 -- 67
2020-06-23 09:00:00 19.4 4 Sur 6 Sur 0 928.3 -- 74
2020-06-23 08:00:00 18.6 3 Sudoeste 5 Sudoeste 0 928.3 -- 75
2020-06-23 07:00:00 16.9 4 Noroeste 10 Norte 0 928.2 -- 83
2020-06-23 06:00:00 16.2 2 Sudeste 10 Norte 0 928.1 -- 84
2020-06-23 05:00:00 16.2 3 Noroeste 5 Noroeste 0 928.3 -- 79
2020-06-23 04:00:00 17.3 2 Sudoeste 7 Oeste 0 928.5 -- 79
2020-06-23 03:00:00 17.7 5 Oeste 8 Noroeste 0 928.6 -- 77
2020-06-23 02:00:00 18.1 6 Noroeste 12 Sudoeste 0 928.9 -- 72
2020-06-23 01:00:00 19.6 9 Oeste 14 Oeste 0 928.9 -- 65
2020-06-23 00:00:00 19.7 6 Oeste 10 Norte 0 928.8 -- 54
2020-06-22 23:00:00 20 5 Noroeste 10 Oeste 0 928.5 -- 55
2020-06-22 22:00:00 22.3 7 Sudoeste 13 Oeste 0 927.9 -- 48
2020-06-22 21:00:00 24.6 11 Oeste 21 Sudoeste 0 927.4 -- 43
2020-06-22 20:00:00 26.8 15 Sudoeste 23 Sudoeste 0 927.2 -- 37
2020-06-22 19:00:00 27.9 15 Sudoeste 26 Sudoeste 0 927.1 -- 33
2020-06-22 18:00:00 28.3 16 Sudoeste 28 Sudoeste 0 927.4 -- 35
2020-06-22 17:00:00 28.5 17 Sudoeste 28 Sudoeste 0 927.9 -- 34
2020-06-22 16:00:00 28.1 16 Sudoeste 30 Sudoeste 0 928.5 -- 35
2020-06-22 15:00:00 28.2 14 Sudoeste 32 Sudoeste 0 929 -- 36
2020-06-22 14:00:00 27.3 17 Sudoeste 31 Sur 0 929.5 -- 34
2020-06-22 13:00:00 26.8 17 Sur 28 Sur 0 929.7 -- 34
2020-06-22 12:00:00 25.1 6 Sur 19 Sur 0 930 -- 39
2020-06-22 11:00:00 23.2 9 Sur 15 Sur 0 930.3 -- 46
2020-06-22 10:00:00 21.1 5 Sur 11 Sur 0 930.8 -- 52
2020-06-22 09:00:00 19.9 3 Sudoeste 7 Sudoeste 0 930.8 -- 51
2020-06-22 08:00:00 18.8 3 Sudoeste 6 Noroeste 0 930.7 -- 49
2020-06-22 07:00:00 17.6 3 Oeste 13 Norte 0 930.6 -- 50
2020-06-22 06:00:00 15.5 7 Norte 14 Nordeste 0 930.3 -- 57
2020-06-22 05:00:00 17.8 7 Nordeste 21 Nordeste 0 930.4 -- 48
2020-06-22 04:00:00 18.1 12 Nordeste 19 Nordeste 0 930.5 -- 47
2020-06-22 03:00:00 18.8 8 Nordeste 17 Norte 0 930.5 -- 45
2020-06-22 02:00:00 19.8 6 Este 23 Nordeste 0 930.6 -- 42
2020-06-22 01:00:00 20.6 9 Nordeste 35 Norte 0 930.7 -- 43
2020-06-22 00:00:00 21.5 22 Nordeste 38 Norte 0 930.2 -- 41
2020-06-21 23:00:00 22.1 14 Nordeste 32 Nordeste 0 929.9 -- 41
2020-06-21 22:00:00 23.1 16 Nordeste 27 Nordeste 0 929.1 -- 41
2020-06-21 21:00:00 24.5 7 Norte 14 Nordeste 0 928.4 -- 37
2020-06-21 20:00:00 26.9 10 Oeste 23 Oeste 0 928.2 -- 29
2020-06-21 19:00:00 27.6 19 Oeste 28 Sudoeste 0 928.1 -- 28
2020-06-21 18:00:00 29.2 15 Sudoeste 32 Oeste 0 928.3 -- 30
2020-06-21 17:00:00 28.5 19 Sudoeste 37 Sudoeste 0 928.5 -- 33
2020-06-21 16:00:00 28.1 20 Oeste 35 Sudoeste 0 929 -- 34
2020-06-21 15:00:00 28 19 Oeste 35 Sudoeste 0 929.1 -- 30
2020-06-21 14:00:00 27.3 18 Oeste 33 Oeste 0 929.5 -- 31
2020-06-21 13:00:00 25.8 13 Sudoeste 26 Oeste 0 929.9 -- 35
2020-06-21 12:00:00 24 9 Sur 17 Sur 0 930.2 -- 51
2020-06-21 11:00:00 21.6 6 Sur 12 Sur 0 930.4 -- 59
2020-06-21 10:00:00 19.4 5 Sur 9 Sur 0 930.6 -- 68
2020-06-21 09:00:00 17.4 4 Sur 6 Sur 0 930.5 -- 74
2020-06-21 08:00:00 15.3 0 Calma 5 Noroeste 0 930.1 -- 81
2020-06-21 07:00:00 15 4 Nordeste 5 Norte 0 929.7 -- 81
2020-06-21 06:00:00 15.1 0 Calma 9 Norte 0 929.3 -- 78
2020-06-21 05:00:00 14.8 7 Norte 9 Norte 0 929.3 -- 78
2020-06-21 04:00:00 16.2 4 Oeste 7 Oeste 0 929.4 -- 72
2020-06-21 03:00:00 17.3 0 Calma 14 Norte 0 929.4 -- 68
2020-06-21 02:00:00 17 8 Norte 10 Noroeste 0 929.7 -- 67
2020-06-21 01:00:00 17.1 9 Norte 13 Norte 0 929.6 -- 65
2020-06-21 00:00:00 19.5 5 Sudoeste 9 Sudoeste 0 929.4 -- 58
2020-06-20 23:00:00 19 7 Norte 15 Noroeste 0 929 -- 48
2020-06-20 22:00:00 21.2 11 Oeste 15 Noroeste 0 928.5 -- 44
2020-06-20 21:00:00 22.8 10 Oeste 18 Sudoeste 0 928 -- 45
2020-06-20 20:00:00 25.8 9 Oeste 28 Oeste 0 927.6 -- 38
2020-06-20 19:00:00 25.7 15 Oeste 40 Sudoeste 0 927.4 -- 41
2020-06-20 18:00:00 24.8 22 Oeste 33 Oeste 0 927.6 -- 46
2020-06-20 17:00:00 24.6 19 Oeste 40 Sudoeste 0 928 -- 45
2020-06-20 16:00:00 26.7 18 Oeste 37 Oeste 0 928.2 -- 39
2020-06-20 15:00:00 25.9 19 Sudoeste 36 Sudoeste 0 928.5 -- 45
2020-06-20 14:00:00 24.2 22 Oeste 33 Sudoeste 0 928.8 -- 50
2020-06-20 13:00:00 25 10 Sudoeste 31 Sudoeste 0 929 -- 49
2020-06-20 12:00:00 23.3 13 Sur 21 Sudoeste 0 929.3 -- 61
2020-06-20 11:00:00 21.3 6 Sur 15 Sur 0 929.4 -- 67
2020-06-20 10:00:00 19.4 5 Sudoeste 10 Sur 0 929.6 -- 75
2020-06-20 09:00:00 17.6 4 Sur 8 Sur 0 929.5 -- 82
2020-06-20 08:00:00 16.5 0 Calma 5 Sur 0 929.2 -- 86
2020-06-20 07:00:00 14.6 4 Norte 9 Norte 0 929 -- 94
2020-06-20 06:00:00 14.9 3 Sur 5 Sur 0 928.9 -- 90
2020-06-20 05:00:00 15.2 3 Sudoeste 9 Norte 0 928.8 -- 89
2020-06-20 04:00:00 15.7 8 Norte 10 Norte 0 928.8 -- 87
2020-06-20 03:00:00 16 9 Norte 11 Noroeste 0 929.1 -- 86
2020-06-20 02:00:00 16 2 Sudeste 13 Nordeste 0 929.2 -- 85
2020-06-20 01:00:00 15.8 7 Norte 12 Norte 0 929 -- 85
2020-06-20 00:00:00 16.7 8 Sudoeste 12 Sudoeste 0 928.6 -- 79
2020-06-19 23:00:00 17.2 7 Nordeste 16 Oeste 0 928.2 -- 72
2020-06-19 22:00:00 18.7 15 Oeste 21 Oeste 0 927.3 -- 65
2020-06-19 21:00:00 20 15 Oeste 23 Oeste 0 926.7 -- 60
2020-06-19 20:00:00 21.5 13 Oeste 25 Sudoeste 0 926.1 -- 53
2020-06-19 19:00:00 21.2 16 Sudoeste 26 Sudoeste 0 925.9 -- 53
2020-06-19 18:00:00 22.6 20 Sudoeste 32 Sudoeste 0 925.8 -- 48
2020-06-19 17:00:00 23.7 17 Sudoeste 30 Sur 0 925.9 -- 45
2020-06-19 16:00:00 23.4 13 Sudoeste 32 Sudoeste 0 926.1 -- 47
2020-06-19 15:00:00 22 13 Sur 21 Sur 0 926.3 -- 59
2020-06-19 14:00:00 20.1 8 Sur 18 Sudeste 0 926.9 -- 65
2020-06-19 13:00:00 18.2 5 Sudeste 11 Sur 0 927.3 -- 66
2020-06-19 12:00:00 17.3 4 Sudoeste 9 Sudeste 0 927.5 -- 69
2020-06-19 11:00:00 15 3 Este 10 Nordeste 0 927.4 -- 81
2020-06-19 10:00:00 14 5 Norte 14 Sudeste 0 927.1 -- 87
2020-06-19 09:00:00 14.1 5 Nordeste 11 Nordeste 0.4 927 -- 88
2020-06-19 08:00:00 13.7 5 Este 10 Este 1.2 926.6 -- 91
2020-06-19 07:00:00 13.9 4 Sudeste 10 Sudeste 0 926.1 -- 92
2020-06-19 06:00:00 13.8 4 Sur 14 Sudeste 0 925.9 -- 91
2020-06-19 05:00:00 13.3 3 Nordeste 8 Nordeste 0 925.5 -- 90
2020-06-19 04:00:00 13.9 3 Sur 7 Sur 0 925 -- 85
2020-06-19 03:00:00 14.5 5 Sudoeste 10 Oeste 0 925.2 -- 80
2020-06-19 02:00:00 14.9 3 Oeste 8 Norte 0 925.2 -- 75
2020-06-19 01:00:00 14.8 6 Noroeste 10 Oeste 0 925.3 -- 73
2020-06-19 00:00:00 16.4 4 Sur 10 Sudeste 0 925.1 -- 67
2020-06-18 23:00:00 16.3 6 Norte 10 Norte 0 924.8 -- 67
2020-06-18 22:00:00 17.2 6 Sudoeste 18 Oeste 0 923.9 -- 62
2020-06-18 21:00:00 18.3 10 Sudoeste 17 Sudoeste 0 923 -- 55
2020-06-18 20:00:00 20.6 12 Sudoeste 26 Sudoeste 0 922.5 -- 44
2020-06-18 19:00:00 21.7 13 Sudoeste 23 Sudoeste 0 922.1 -- 40
2020-06-18 18:00:00 22.1 14 Oeste 28 Sudoeste 0 922.1 -- 36
2020-06-18 17:00:00 20.4 8 Sudoeste 30 Sudoeste 0 922.5 -- 49
2020-06-18 16:00:00 21.9 19 Sudoeste 34 Sudoeste 0 922.6 -- 42
2020-06-18 15:00:00 21.3 16 Sudoeste 31 Sudoeste 0 922.9 -- 47
2020-06-18 14:00:00 19.5 13 Sudoeste 30 Sudoeste 0 923 -- 52
2020-06-18 13:00:00 18.8 10 Sudoeste 26 Sur 0 923.2 -- 56
2020-06-18 12:00:00 17.7 10 Sur 19 Sur 0 923.5 -- 65
2020-06-18 11:00:00 16 8 Sur 14 Sur 0 923.4 -- 78
2020-06-18 10:00:00 13.8 6 Sudoeste 14 Sudeste 0 923.3 -- 87
2020-06-18 09:00:00 11.7 5 Oeste 14 Este 0.4 923.5 -- 97
2020-06-18 08:00:00 11.2 10 Oeste 14 Oeste 0.2 923.8 -- 93
2020-06-18 07:00:00 11 5 Oeste 13 Este 0.4 922.7 -- 96
2020-06-18 06:00:00 11.5 8 Sur 13 Sur 0.2 923.2 -- 92
2020-06-18 05:00:00 12 4 Oeste 14 Noroeste 0 923.1 -- 78
2020-06-18 04:00:00 12 7 Noroeste 9 Norte 0.4 923.1 -- 83
2020-06-18 03:00:00 13.2 4 Noroeste 10 Nordeste 0 923.7 -- 65
2020-06-18 02:00:00 13.7 6 Nordeste 9 Nordeste 0 923.7 -- 58
2020-06-18 01:00:00 13.9 6 Norte 10 Norte 0 923.8 -- 57
2020-06-18 00:00:00 13.9 5 Oeste 9 Oeste 0 923.8 -- 56
2020-06-17 23:00:00 14.8 3 Este 25 Oeste 0 923.5 -- 51
2020-06-17 22:00:00 16.6 17 Oeste 22 Oeste 0 922.6 -- 46
2020-06-17 21:00:00 17.6 13 Oeste 21 Sudoeste 0 922.1 -- 42
2020-06-17 20:00:00 20.1 13 Sudoeste 27 Sudoeste 0 921.9 -- 36
2020-06-17 19:00:00 20.5 19 Sudoeste 32 Oeste 0 921.8 -- 35
2020-06-17 18:00:00 19.5 18 Oeste 31 Oeste 0 921.9 -- 37
2020-06-17 17:00:00 21.3 19 Oeste 37 Oeste 0 922.3 -- 35
2020-06-17 16:00:00 19.8 23 Sudoeste 39 Sudoeste 0 922.5 -- 39
2020-06-17 15:00:00 19.7 22 Oeste 39 Sudoeste 0 922.9 -- 40
2020-06-17 14:00:00 20.2 20 Sudoeste 36 Sudoeste 0 923.1 -- 41
2020-06-17 13:00:00 19 24 Oeste 36 Oeste 0 923.5 -- 40
2020-06-17 12:00:00 18.5 24 Oeste 36 Oeste 0 923.6 -- 49
2020-06-17 11:00:00 16.5 9 Sur 17 Sudeste 0 923.6 -- 71
2020-06-17 10:00:00 15 5 Sur 12 Sur 0 923.8 -- 78
2020-06-17 09:00:00 12.9 3 Sudeste 10 Sur 0 924 -- 86
2020-06-17 08:00:00 13.3 0 Calma 6 Sudoeste 0 923.7 -- 80
2020-06-17 07:00:00 10.6 0 Calma 8 Norte 0 923.3 -- 92
2020-06-17 06:00:00 8.8 5 Norte 6 Norte 0 923 -- 91
2020-06-17 05:00:00 10.3 5 Norte 8 Sudoeste 0 923 -- 94
2020-06-17 04:00:00 10.6 4 Sudoeste 6 Sur 0 923.3 -- 90
2020-06-17 03:00:00 10.4 3 Oeste 11 Norte 0 923.9 -- 91
2020-06-17 02:00:00 11 6 Norte 8 Nordeste 0 924 -- 88
2020-06-17 01:00:00 12.1 4 Oeste 9 Oeste 0 924.4 -- 82
2020-06-17 00:00:00 12.3 4 Nordeste 9 Noroeste 0 924.5 -- 80
2020-06-16 23:00:00 12.1 4 Noroeste 13 Noroeste 0 924.7 -- 78
2020-06-16 22:00:00 12.8 2 Noroeste 18 Norte 0 924.2 -- 77
2020-06-16 21:00:00 13.7 14 Noroeste 19 Norte 0 923.6 -- 77
2020-06-16 20:00:00 15.6 6 Nordeste 26 Oeste 0.2 923.6 -- 74
2020-06-16 19:00:00 15.9 12 Oeste 24 Noroeste 0 923.4 -- 75
2020-06-16 18:00:00 16.3 7 Oeste 23 Sudoeste 0 923.5 -- 71
2020-06-16 17:00:00 18.4 14 Sudoeste 27 Sudoeste 0 923.4 -- 63
2020-06-16 16:00:00 17.6 13 Sudoeste 26 Sudoeste 0 924.1 -- 70
2020-06-16 15:00:00 15.1 14 Sudoeste 24 Sudoeste 0 924.7 -- 82
2020-06-16 14:00:00 14.1 12 Sur 17 Sur 0.4 925.3 -- 99
2020-06-16 13:00:00 13.5 8 Sur 13 Sur 1.2 925.7 -- 99
2020-06-16 12:00:00 12.9 9 Sur 15 Sudoeste 2.4 926 -- 98
2020-06-16 11:00:00 13.1 6 Sur 10 Sur 0.8 926.1 -- 98
2020-06-16 10:00:00 13 5 Sur 11 Sur 0 926.6 -- 98
2020-06-16 09:00:00 13.2 5 Sur 8 Sur 0.6 926.5 -- 96
2020-06-16 08:00:00 12.6 3 Sudeste 17 Oeste 1.4 926.3 -- 96
2020-06-16 07:00:00 12.9 15 Oeste 20 Oeste 2 926.4 -- 84
2020-06-16 06:00:00 13.8 5 Oeste 11 Sudoeste 0.2 926.3 -- 80
2020-06-16 05:00:00 14.5 4 Noroeste 6 Norte 0 925.8 -- 70
2020-06-16 04:00:00 15.2 3 Sudoeste 8 Oeste 0 926.3 -- 64
2020-06-16 03:00:00 15.5 3 Sudeste 17 Oeste 0 926.5 -- 60
2020-06-16 02:00:00 15.7 4 Oeste 10 Oeste 0 926.8 -- 61
2020-06-16 01:00:00 16.5 4 Sudoeste 14 Noroeste 0 926.8 -- 54
2020-06-16 00:00:00 17.5 12 Noroeste 16 Noroeste 0 927 -- 49
2020-06-15 23:00:00 16.9 8 Noroeste 15 Noroeste 0 927 -- 49
2020-06-15 22:00:00 16.8 8 Norte 19 Oeste 0 926.3 -- 49
2020-06-15 21:00:00 19.6 8 Oeste 33 Oeste 0 926.1 -- 39
2020-06-15 20:00:00 22 19 Oeste 41 Oeste 0 926 -- 33
2020-06-15 19:00:00 22.9 19 Oeste 39 Sudoeste 0 925.8 -- 34
2020-06-15 18:00:00 23.6 18 Oeste 37 Oeste 0 925.9 -- 35
2020-06-15 17:00:00 24 20 Oeste 39 Sudoeste 0 926.1 -- 33
2020-06-15 16:00:00 24.4 22 Sudoeste 43 Sudoeste 0 926.5 -- 32
2020-06-15 15:00:00 23.8 23 Sudoeste 39 Sudoeste 0 926.5 -- 35
2020-06-15 14:00:00 23.4 22 Sudoeste 39 Sudoeste 0 927 -- 34
2020-06-15 13:00:00 23 20 Sudoeste 38 Sudoeste 0 927.4 -- 35
2020-06-15 12:00:00 22 15 Oeste 32 Sudoeste 0 927.6 -- 38
2020-06-15 11:00:00 19.6 10 Sudeste 18 Sur 0 927.8 -- 56
2020-06-15 10:00:00 18.8 8 Sudeste 14 Sur 0 927.9 -- 59
2020-06-15 09:00:00 16.3 4 Sur 6 Sur 0 927.9 -- 64
2020-06-15 08:00:00 15.1 4 Sur 5 Sur 0 927.6 -- 67
2020-06-15 07:00:00 14.5 2 Sudeste 4 Noroeste 0 927.3 -- 64
2020-06-15 06:00:00 14.4 2 Sur 8 Norte 0 927 -- 63
2020-06-15 05:00:00 14.2 3 Noroeste 10 Norte 0 926.7 -- 60
2020-06-15 04:00:00 14.8 5 Noroeste 8 Noroeste 0 926.8 -- 60
2020-06-15 03:00:00 14.8 4 Norte 8 Norte 0 927 -- 62
2020-06-15 02:00:00 15.8 2 Sudoeste 8 Nordeste 0 927 -- 57
2020-06-15 01:00:00 16.2 3 Sur 11 Noroeste 0 927 -- 56
2020-06-15 00:00:00 16.9 5 Oeste 12 Noroeste 0 926.9 -- 49
2020-06-14 23:00:00 16.9 12 Noroeste 16 Noroeste 0 926.7 -- 51
2020-06-14 22:00:00 17.2 12 Noroeste 17 Noroeste 0 926.3 -- 49
2020-06-14 21:00:00 18.8 8 Oeste 17 Noroeste 0 925.9 -- 46
2020-06-14 20:00:00 19.9 7 Noroeste 21 Noroeste 0 925.5 -- 43
2020-06-14 19:00:00 21.6 11 Oeste 19 Oeste 0 925.1 -- 36
2020-06-14 18:00:00 21.7 13 Oeste 31 Sudoeste 0 925.2 -- 33
2020-06-14 17:00:00 21.5 14 Oeste 27 Sudoeste 0 925.3 -- 37
2020-06-14 16:00:00 22.9 13 Sudoeste 31 Sudoeste 0 925.5 -- 34
2020-06-14 15:00:00 22.1 16 Oeste 33 Sudoeste 0 925.9 -- 34
2020-06-14 14:00:00 21.5 15 Oeste 32 Oeste 0 926.3 -- 36
2020-06-14 13:00:00 21.4 13 Oeste 24 Sudoeste 0 926.5 -- 39
2020-06-14 12:00:00 18.5 6 Sudeste 17 Sur 0 926.9 -- 52
2020-06-14 11:00:00 17.5 10 Sur 18 Sur 0 926.7 -- 57
2020-06-14 10:00:00 15.7 6 Sur 12 Sur 0 926.6 -- 65
2020-06-14 09:00:00 13 2 Oeste 9 Norte 0 926.6 -- 71
2020-06-14 08:00:00 11.8 5 Norte 8 Norte 0 926.5 -- 79
2020-06-14 07:00:00 11.3 2 Sudeste 5 Norte 0 926 -- 73
2020-06-14 06:00:00 9.8 0 Calma 4 Oeste 0 925.7 -- 75
2020-06-14 05:00:00 10.6 2 Sudeste 12 Noroeste 0 925.2 -- 73
2020-06-14 04:00:00 11.3 4 Oeste 11 Sur 0 925.3 -- 70
2020-06-14 03:00:00 11.4 6 Norte 13 Noroeste 0 925.5 -- 69
2020-06-14 02:00:00 12.6 3 Sudoeste 12 Norte 0 925.7 -- 64
2020-06-14 01:00:00 13.6 8 Noroeste 18 Norte 0 925.5 -- 59
2020-06-14 00:00:00 13.7 5 Noroeste 13 Norte 0 925.2 -- 59
2020-06-13 23:00:00 14.8 8 Norte 23 Noroeste 0 924.5 -- 51
2020-06-13 22:00:00 15.7 15 Noroeste 28 Oeste 0 923.3 -- 46
2020-06-13 21:00:00 17.1 18 Oeste 35 Oeste 0 923 -- 45
2020-06-13 20:00:00 19.2 22 Oeste 39 Sudoeste 0 922.3 -- 37
2020-06-13 19:00:00 20.1 22 Oeste 42 Oeste 0 921.6 -- 36
2020-06-13 18:00:00 20.6 23 Oeste 41 Oeste 0 921.3 -- 34
2020-06-13 17:00:00 21.2 21 Oeste 45 Sudoeste 0 921 -- 34
2020-06-13 16:00:00 21.4 19 Oeste 38 Sudoeste 0 920.8 -- 36
2020-06-13 15:00:00 21.2 22 Sudoeste 41 Oeste 0 920.6 -- 39
2020-06-13 14:00:00 20.3 21 Sudoeste 46 Sudoeste 0 920.6 -- 42
2020-06-13 13:00:00 19.2 23 Sudoeste 38 Sudoeste 0 920.4 -- 42
2020-06-13 12:00:00 18.7 21 Sur 31 Sur 0 920.2 -- 46
2020-06-13 11:00:00 16.4 8 Sur 24 Sur 0 919.9 -- 61
2020-06-13 10:00:00 14.6 6 Sur 12 Sur 0 919.9 -- 72
2020-06-13 09:00:00 12.7 5 Sur 9 Sur 0 919.5 -- 78
2020-06-13 08:00:00 12.3 0 Calma 9 Noroeste 0 918.6 -- 76
2020-06-13 07:00:00 9 6 Norte 11 Norte 0 918.6 -- 88
2020-06-13 06:00:00 8.8 10 Norte 13 Norte 0 918.1 -- 84
2020-06-13 05:00:00 9.7 3 Sur 13 Norte 0 917.9 -- 83
2020-06-13 04:00:00 10.3 4 Sur 13 Norte 0 918.1 -- 82
2020-06-13 03:00:00 10.7 10 Norte 17 Sur 0 918.2 -- 81
2020-06-13 02:00:00 12.1 8 Noroeste 16 Norte 0 917.8 -- 66
2020-06-13 01:00:00 11.9 4 Noroeste 25 Noroeste 0 917.5 -- 69
2020-06-13 00:00:00 11.4 11 Norte 12 Norte 0 917.2 -- 66
2020-06-12 23:00:00 12.2 5 Oeste 11 Oeste 0 917.1 -- 60
2020-06-12 22:00:00 12.6 9 Oeste 12 Oeste 0 916.2 -- 62
2020-06-12 21:00:00 14.7 8 Oeste 19 Sudoeste 0 915.6 -- 53
2020-06-12 20:00:00 18.7 11 Sudoeste 18 Oeste 0 915.1 -- 36
2020-06-12 19:00:00 18 10 Sudoeste 27 Sudoeste 0 914.7 -- 38
2020-06-12 18:00:00 18.7 15 Sudoeste 28 Sudoeste 0 914.5 -- 39
2020-06-12 17:00:00 18.6 14 Sudoeste 32 Sudoeste 0 914.4 -- 43
2020-06-12 16:00:00 16.6 20 Sudoeste 39 Sudoeste 0 914.4 -- 48
2020-06-12 15:00:00 18.9 22 Sudoeste 33 Sudoeste 0 913.9 -- 43
2020-06-12 14:00:00 17.7 15 Sudoeste 36 Sudoeste 0 913.9 -- 45
2020-06-12 13:00:00 17.4 20 Sudoeste 33 Sudoeste 0 913.7 -- 47
2020-06-12 12:00:00 16.6 24 Oeste 42 Sudoeste 0 913.5 -- 49
2020-06-12 11:00:00 16 22 Oeste 38 Oeste 0 913 -- 49
2020-06-12 10:00:00 16.3 6 Sudoeste 19 Oeste 0 912.7 -- 65
2020-06-12 09:00:00 12.7 4 Sur 17 Sur 0 912.6 -- 93
2020-06-12 08:00:00 12.5 4 Noroeste 8 Norte 0 911.7 -- 93
2020-06-12 07:00:00 11.3 4 Noroeste 14 Noroeste 0 911.7 -- 97
2020-06-12 06:00:00 10.9 10 Norte 12 Norte 0 911.6 -- 97
2020-06-12 05:00:00 11.1 5 Nordeste 12 Nordeste 0.2 911.6 -- 97
2020-06-12 04:00:00 11.3 6 Oeste 28 Noroeste 0.2 911.4 -- 97
2020-06-12 03:00:00 11.3 19 Norte 27 Norte 3 911.5 -- 85
2020-06-12 02:00:00 12.4 13 Noroeste 17 Noroeste 3.2 911.6 -- 98
2020-06-12 01:00:00 12.5 4 Nordeste 10 Sudeste 2.4 911.7 -- 98
2020-06-12 00:00:00 13 12 Este 21 Este 8.8 912.2 -- 97
2020-06-11 23:00:00 14.1 6 Norte 16 Este 5 912.6 -- 91
2020-06-11 22:00:00 13.9 7 Norte 14 Sudeste 0 911.8 -- 92
2020-06-11 21:00:00 13.6 6 Norte 10 Norte 0 912.5 -- 97
2020-06-11 20:00:00 14.6 3 Norte 15 Norte 0.6 912.8 -- 88
2020-06-11 19:00:00 13.5 6 Sudoeste 12 Sur 0.2 913.5 -- 94
2020-06-11 18:00:00 14.9 3 Sur 10 Noroeste 1.2 913.5 -- 85
2020-06-11 17:00:00 15.3 6 Norte 17 Nordeste 0.8 913.9 -- 81
2020-06-11 16:00:00 15.7 8 Nordeste 14 Este 0 914.5 -- 68
2020-06-11 15:00:00 17.5 9 Sudeste 15 Este 0 915.1 -- 59
2020-06-11 14:00:00 16.1 5 Nordeste 10 Nordeste 0 915.6 -- 60
2020-06-11 13:00:00 14.8 6 Sudeste 15 Sur 0 916.2 -- 64
2020-06-11 12:00:00 15.1 10 Sudeste 17 Sudeste 0 916.5 -- 61
2020-06-11 11:00:00 13.4 3 Sur 9 Sur 0 916.8 -- 80
2020-06-11 10:00:00 12.7 3 Oeste 8 Norte 0 917.3 -- 78
2020-06-11 09:00:00 12 6 Norte 11 Norte 0 917.9 -- 75
2020-06-11 08:00:00 11.5 4 Sur 12 Norte 0 918.1 -- 80
2020-06-11 07:00:00 10.5 3 Nordeste 13 Norte 0 918.6 -- 81
2020-06-11 06:00:00 10.3 10 Norte 13 Norte 0.2 918.8 -- 83
2020-06-11 05:00:00 11.9 4 Oeste 12 Norte 0 919 -- 67
2020-06-11 04:00:00 12 3 Norte 10 Norte 0 919.1 -- 65
2020-06-11 03:00:00 12 7 Noroeste 10 Oeste 0 919.5 -- 63
2020-06-11 02:00:00 12.2 4 Noroeste 10 Oeste 0 919.9 -- 58
2020-06-11 01:00:00 13.8 8 Sudoeste 27 Noroeste 0 920.6 -- 53
2020-06-11 00:00:00 14.6 16 Oeste 26 Oeste 0 921.4 -- 54
2020-06-10 23:00:00 14.7 12 Oeste 31 Oeste 0 921.4 -- 58
2020-06-10 22:00:00 15.8 9 Oeste 18 Oeste 0 920.9 -- 51
2020-06-10 21:00:00 16.4 17 Oeste 27 Oeste 0 920.7 -- 46
2020-06-10 20:00:00 17.1 12 Sudoeste 27 Oeste 0 920.7 -- 46
2020-06-10 19:00:00 18 16 Oeste 28 Oeste 0 920.6 -- 42
2020-06-10 18:00:00 18.3 15 Sudoeste 31 Oeste 0 920.8 -- 43
2020-06-10 17:00:00 18.9 24 Sudoeste 40 Sudoeste 0 921.2 -- 40
2020-06-10 16:00:00 19.4 21 Sudoeste 35 Sudoeste 0 921.2 -- 39
2020-06-10 15:00:00 20.1 18 Sur 35 Sudoeste 0 921.5 -- 39
2020-06-10 14:00:00 17.9 15 Sudoeste 31 Sudoeste 0 922.1 -- 47
2020-06-10 13:00:00 17.3 15 Sudoeste 36 Sudoeste 0 922.4 -- 44
2020-06-10 12:00:00 18.4 10 Sur 23 Sur 0 922.7 -- 52
2020-06-10 11:00:00 15.4 6 Sur 13 Sur 0 923.3 -- 61
2020-06-10 10:00:00 13.7 7 Sur -- -- -- 923.6 -- 72
2020-06-10 09:00:00 -- -- -- -- -- -- -- -- --
2020-06-10 08:00:00 -- -- -- -- -- -- -- -- --
2020-06-10 07:00:00 -- -- -- -- -- -- -- -- --
2020-06-10 06:00:00 -- -- -- -- -- -- -- -- --
2020-06-10 05:00:00 -- -- -- -- -- -- -- -- --
2020-06-10 04:00:00 -- -- -- -- -- -- -- -- --
2020-06-10 03:00:00 -- -- -- -- -- -- -- -- --
2020-06-10 02:00:00 -- -- -- -- -- -- -- -- --
2020-06-10 01:00:00 -- -- -- -- -- -- -- -- --
2020-06-10 00:00:00 -- 4 Nordeste 13 Norte 0 924.5 -- --
2020-06-09 23:00:00 -- 7 Norte 11 Norte 0 924.3 -- --
2020-06-09 22:00:00 -- 7 Norte 12 Norte 0 923.6 -- --
2020-06-09 21:00:00 -- 6 Noroeste 9 Norte 0 923 -- --
2020-06-09 20:00:00 -- 5 Sudeste 19 Sur 0 922.8 -- --
2020-06-09 19:00:00 -- 12 Norte 38 Oeste 0.4 922.5 -- --
2020-06-09 18:00:00 -- 7 Norte 13 Este 0 922.5 -- --
2020-06-09 17:00:00 -- 6 Sudeste 22 Sur 0 922.3 -- --
2020-06-09 16:00:00 -- 11 Sur 28 Sur 0 922.6 -- --
2020-06-09 15:00:00 -- 13 Sur 25 Sur 0 922.6 -- --
2020-06-09 14:00:00 -- 14 Oeste 23 Sudoeste 0 923 -- --
2020-06-09 13:00:00 -- 5 Sur 13 Sur 0 923.2 -- --
2020-06-09 12:00:00 -- 6 Sur 14 Sur 0 923.4 -- --
2020-06-09 11:00:00 -- 7 Sur 12 Sur 0 923.4 -- --
2020-06-09 10:00:00 -- 7 Sur 13 Sur 0 923.6 -- --
2020-06-09 09:00:00 -- 4 Sur -- -- -- 923.6 -- --
2020-06-09 08:00:00 -- -- -- -- -- -- -- -- --
2020-06-09 07:00:00 -- -- -- -- -- -- -- -- --
2020-06-09 06:00:00 -- -- -- -- -- -- -- -- --
2020-06-09 05:00:00 -- -- -- -- -- -- -- -- --
2020-06-09 04:00:00 -- -- -- -- -- -- -- -- --
2020-06-09 03:00:00 -- -- -- -- -- -- -- -- --
2020-06-09 02:00:00 -- -- -- -- -- -- -- -- --
2020-06-09 01:00:00 -- -- -- -- -- -- -- -- --
2020-06-09 00:00:00 -- -- -- -- -- -- -- -- --
2020-06-08 23:00:00 -- 13 Nordeste 21 Este 0 922.7 -- --
2020-06-08 22:00:00 -- 7 Norte 12 Norte 0 921.8 -- --
2020-06-08 21:00:00 -- 11 Nordeste 15 Nordeste 0 920.8 -- --
2020-06-08 20:00:00 -- 3 Oeste 41 Noroeste 0.8 920.6 -- --
2020-06-08 19:00:00 -- 5 Norte 11 Sur 0 920.5 -- --
2020-06-08 18:00:00 -- 8 Sudoeste 18 Sudeste 0 920.5 -- --
2020-06-08 17:00:00 -- 14 Oeste 45 Oeste 0.6 920.4 -- --
2020-06-08 16:00:00 -- 8 Noroeste 22 Sudeste 0 920.7 -- --
2020-06-08 15:00:00 -- 6 Este 29 Oeste 0 920.7 -- --
2020-06-08 14:00:00 -- 10 Sudoeste 30 Oeste 0 920.4 -- --
2020-06-08 13:00:00 -- 14 Sudoeste -- -- -- 920.1 -- --
2020-06-08 12:00:00 -- 11 Sudoeste 27 Sur 0 920.1 -- --
2020-06-08 11:00:00 -- 9 Sur 18 Sur 0 920.1 -- --
2020-06-08 10:00:00 -- 8 Sur 14 Sur 0 920.2 -- --
2020-06-08 09:00:00 -- 5 Sur -- -- -- 919.9 -- --
2020-06-08 08:00:00 -- -- -- -- -- -- -- -- --
2020-06-08 07:00:00 -- -- -- -- -- -- -- -- --
2020-06-08 06:00:00 -- -- -- -- -- -- -- -- --
2020-06-08 05:00:00 -- -- -- -- -- -- -- -- --
2020-06-08 04:00:00 -- -- -- -- -- -- -- -- --
2020-06-08 03:00:00 -- -- -- -- -- -- -- -- --
2020-06-08 02:00:00 -- -- -- -- -- -- -- -- --
2020-06-08 01:00:00 -- -- -- -- -- -- -- -- --
2020-06-08 00:00:00 -- -- -- -- -- -- -- -- --
2020-06-07 23:00:00 -- -- -- -- -- -- -- -- --
2020-06-07 22:00:00 -- -- -- -- -- -- -- -- --
2020-06-07 21:00:00 -- -- -- -- -- -- -- -- --
2020-06-07 20:00:00 -- -- -- -- -- -- -- -- --
2020-06-07 19:00:00 -- -- -- -- -- -- 917.1 -- --
2020-06-07 18:00:00 13.2 9 Norte 30 Nordeste 7.2 916.6 -- 83
2020-06-07 17:00:00 16.1 19 Nordeste 39 Noroeste 0 916.1 -- 64
2020-06-07 16:00:00 17.4 24 Noroeste 41 Noroeste 0 916 -- 59
2020-06-07 15:00:00 19.4 21 Sudoeste 44 Sudoeste 0.2 915.9 -- 63
2020-06-07 14:00:00 17.7 13 Sudeste 26 Sur 0 916 -- 70
2020-06-07 13:00:00 18.7 17 Sur 27 Sudoeste 0 916 -- 67
2020-06-07 12:00:00 16.5 -- -- -- -- -- 916.3 -- 76
2020-06-07 11:00:00 -- -- -- -- -- -- -- -- --
2020-06-07 10:00:00 14.8 -- -- -- -- -- 916.1 -- 85
2020-06-07 09:00:00 -- -- -- -- -- -- -- -- --
2020-06-07 08:00:00 -- -- -- -- -- -- -- -- --
2020-06-07 07:00:00 -- -- -- -- -- -- -- -- --
2020-06-07 06:00:00 -- -- -- -- -- -- -- -- --
2020-06-07 05:00:00 -- -- -- -- -- -- -- -- --
2020-06-07 04:00:00 -- -- -- -- -- -- -- -- --
2020-06-07 03:00:00 -- -- -- -- -- -- -- -- --
2020-06-07 02:00:00 -- -- -- -- -- -- -- -- --
2020-06-07 01:00:00 -- -- -- -- -- -- -- -- --
2020-06-07 00:00:00 -- 17 Noroeste 36 Noroeste 0 915.8 -- --